Sign Up for Free

Track your rides and runs via your iPhone, Android or GPS device, analyze your performance, and compare with friends.

Central Park - Columbus Cir.

Ride Segment New York, NY
  • 9.7km
    Distance
  • -0%
    Avg Grade
  • 30m
    Lowest Elev
  • 57m
    Highest Elev
  • 27m
    Elev Difference
  • 160,821 Attempts By 8,035 People

Men's Leaderboard

Rank Name Speed Power Time
1 Paskal L. 48.3km/h 222W Powermeter 12:08
2 Zach Koop 48.2km/h 271W Powermeter 12:09
2 Oleg Tanovitchi 48.2km/h 521W 12:09
4 Michael Zak 48.2km/h 521W 12:10
4 Karl R. 48.2km/h 232W Powermeter 12:10
4 alejandro guzman 48.2km/h 170W Powermeter 12:10
4 Jorge Orrego 48.2km/h 505W 12:10
4 Ironman 95246 48.2km/h 502W 12:10
4 Neil Bezdek 48.2km/h 303W Powermeter 12:10
4 Alexander Barouh 48.2km/h 517W 12:10
4 Paul D. 48.2km/h 508W 12:10
12 Jeff Y. 48.1km/h 240W Powermeter 12:11
12 Jp P. 48.1km/h 226W Powermeter 12:11
12 Francisco Liuzzi 48.1km/h 260W Powermeter 12:11
12 Dave K. 48.1km/h - 12:11
12 Andrew Walsh 48.1km/h - 12:11
17 JP Kaminski 48.0km/h 459W 12:12
17 Mike Stone 48.0km/h 497W 12:12
19 James E. 47.8km/h 514W 12:15
20 Thomas Barnett 46.6km/h 364W Powermeter 12:35

Join Strava to see the full leaderboard

Women's Leaderboard

Rank Name Speed Power Time
1 Amy Miner 46.0km/h - 12:44
2 Fabienne Gerard 44.1km/h 200W Powermeter 13:18
3 Lisa K. 42.6km/h 155W Powermeter 13:45
4 Kathy Fong 42.2km/h 172W Powermeter 13:54
5 Leia S. 41.9km/h 337W 13:59
6 Helen Hatch 40.6km/h - 14:27
7 Jessica Meany 40.4km/h 308W 14:30
8 Meredith Uhl 40.3km/h 197W Powermeter 14:32
9 Sarah Lewis 39.7km/h 307W 14:46
10 Caitie D 39.3km/h 207W 14:55
11 BrittLee Bowman 39.2km/h 190W Powermeter 14:57
12 Cecilia Davis-Hayes 39.2km/h 294W 14:58
13 Erica T. 39.1km/h 297W 14:59
14 Iliana R. 38.9km/h 285W 15:03
15 Lucia D 38.8km/h 163W Powermeter 15:06
16 Brigitte Padewski 38.8km/h - 15:07
17 Elana Iaciofano 38.7km/h 282W 15:08
18 denise margulies 38.7km/h 274W 15:09
19 Jacqueline Parker 38.6km/h 289W 15:12
20 Kari L. 38.5km/h 277W 15:13